sensor_id;sensor_type;location;lat;lon;timestamp;P1;durP1;ratioP1;P2;durP2;ratioP2
33644;SDS011;19986;48.190;16.366;2023-03-07T00:01:55;57.33;;;53.10;;
33644;SDS011;19986;48.190;16.366;2023-03-07T00:04:21;61.70;;;57.22;;
33644;SDS011;19986;48.190;16.366;2023-03-07T00:06:47;60.00;;;55.67;;
33644;SDS011;19986;48.190;16.366;2023-03-07T00:09:13;59.33;;;55.03;;
33644;SDS011;19986;48.190;16.366;2023-03-07T00:11:39;57.50;;;53.25;;
33644;SDS011;19986;48.190;16.366;2023-03-07T00:14:05;58.80;;;54.35;;
33644;SDS011;19986;48.190;16.366;2023-03-07T00:16:32;57.78;;;53.50;;
33644;SDS011;19986;48.190;16.366;2023-03-07T00:18:58;57.78;;;53.42;;
33644;SDS011;19986;48.190;16.366;2023-03-07T00:21:25;59.10;;;54.88;;
33644;SDS011;19986;48.190;16.366;2023-03-07T00:23:55;58.58;;;54.22;;
33644;SDS011;19986;48.190;16.366;2023-03-07T00:26:25;59.72;;;55.08;;
33644;SDS011;19986;48.190;16.366;2023-03-07T00:28:52;59.50;;;54.90;;
33644;SDS011;19986;48.190;16.366;2023-03-07T00:31:19;60.33;;;55.83;;
33644;SDS011;19986;48.190;16.366;2023-03-07T00:33:46;61.08;;;56.47;;
33644;SDS011;19986;48.190;16.366;2023-03-07T00:36:17;62.15;;;57.25;;
33644;SDS011;19986;48.190;16.366;2023-03-07T00:38:44;60.45;;;55.88;;
33644;SDS011;19986;48.190;16.366;2023-03-07T00:41:12;61.95;;;57.15;;
33644;SDS011;19986;48.190;16.366;2023-03-07T00:43:44;62.53;;;57.58;;
33644;SDS011;19986;48.190;16.366;2023-03-07T00:46:11;59.08;;;54.47;;
33644;SDS011;19986;48.190;16.366;2023-03-07T00:48:38;62.67;;;57.92;;
33644;SDS011;19986;48.190;16.366;2023-03-07T00:51:05;62.30;;;57.40;;
33644;SDS011;19986;48.190;16.366;2023-03-07T00:53:32;63.00;;;58.30;;
33644;SDS011;19986;48.190;16.366;2023-03-07T00:56:00;60.78;;;56.08;;
33644;SDS011;19986;48.190;16.366;2023-03-07T00:58:27;61.63;;;56.83;;
33644;SDS011;19986;48.190;16.366;2023-03-07T01:00:54;59.67;;;55.15;;
33644;SDS011;19986;48.190;16.366;2023-03-07T01:03:21;63.42;;;58.72;;
33644;SDS011;19986;48.190;16.366;2023-03-07T01:05:48;60.95;;;55.95;;
33644;SDS011;19986;48.190;16.366;2023-03-07T01:08:15;63.95;;;59.20;;
33644;SDS011;19986;48.190;16.366;2023-03-07T01:10:42;59.00;;;54.30;;
33644;SDS011;19986;48.190;16.366;2023-03-07T01:13:09;61.55;;;56.80;;
33644;SDS011;19986;48.190;16.366;2023-03-07T01:15:37;62.92;;;58.22;;
33644;SDS011;19986;48.190;16.366;2023-03-07T01:18:04;59.40;;;54.65;;
33644;SDS011;19986;48.190;16.366;2023-03-07T01:20:31;61.10;;;56.20;;
33644;SDS011;19986;48.190;16.366;2023-03-07T01:22:58;57.90;;;53.30;;
33644;SDS011;19986;48.190;16.366;2023-03-07T01:25:25;63.03;;;58.28;;
33644;SDS011;19986;48.190;16.366;2023-03-07T01:27:51;61.40;;;56.33;;
33644;SDS011;19986;48.190;16.366;2023-03-07T01:30:19;62.53;;;57.72;;
33644;SDS011;19986;48.190;16.366;2023-03-07T01:32:45;60.90;;;56.20;;
33644;SDS011;19986;48.190;16.366;2023-03-07T01:35:13;62.40;;;57.50;;
33644;SDS011;19986;48.190;16.366;2023-03-07T01:37:40;63.53;;;58.50;;
33644;SDS011;19986;48.190;16.366;2023-03-07T01:40:06;59.97;;;54.92;;
33644;SDS011;19986;48.190;16.366;2023-03-07T01:42:32;60.90;;;56.10;;
33644;SDS011;19986;48.190;16.366;2023-03-07T01:47:30;61.88;;;56.90;;
33644;SDS011;19986;48.190;16.366;2023-03-07T01:49:57;60.85;;;55.97;;
33644;SDS011;19986;48.190;16.366;2023-03-07T01:52:28;60.55;;;55.53;;
33644;SDS011;19986;48.190;16.366;2023-03-07T01:54:58;59.95;;;55.28;;
33644;SDS011;19986;48.190;16.366;2023-03-07T01:57:37;61.13;;;56.40;;
33644;SDS011;19986;48.190;16.366;2023-03-07T02:00:06;62.15;;;57.25;;
33644;SDS011;19986;48.190;16.366;2023-03-07T02:02:36;60.35;;;55.65;;
33644;SDS011;19986;48.190;16.366;2023-03-07T02:05:14;61.05;;;56.10;;
33644;SDS011;19986;48.190;16.366;2023-03-07T02:07:45;62.35;;;57.45;;
33644;SDS011;19986;48.190;16.366;2023-03-07T02:10:15;62.08;;;57.28;;
33644;SDS011;19986;48.190;16.366;2023-03-07T02:12:44;62.72;;;57.95;;
33644;SDS011;19986;48.190;16.366;2023-03-07T02:15:11;62.03;;;57.08;;
33644;SDS011;19986;48.190;16.366;2023-03-07T02:17:41;60.88;;;56.25;;
33644;SDS011;19986;48.190;16.366;2023-03-07T02:22:39;60.05;;;55.40;;
33644;SDS011;19986;48.190;16.366;2023-03-07T02:25:10;63.33;;;58.13;;
33644;SDS011;19986;48.190;16.366;2023-03-07T02:27:57;60.28;;;55.33;;
33644;SDS011;19986;48.190;16.366;2023-03-07T02:30:23;62.90;;;58.10;;
33644;SDS011;19986;48.190;16.366;2023-03-07T02:32:51;60.50;;;55.88;;
33644;SDS011;19986;48.190;16.366;2023-03-07T02:35:21;62.08;;;57.05;;
33644;SDS011;19986;48.190;16.366;2023-03-07T02:37:50;61.05;;;56.15;;
33644;SDS011;19986;48.190;16.366;2023-03-07T02:40:19;61.03;;;56.35;;
33644;SDS011;19986;48.190;16.366;2023-03-07T02:42:50;64.57;;;59.78;;
33644;SDS011;19986;48.190;16.366;2023-03-07T02:45:19;64.43;;;59.40;;
33644;SDS011;19986;48.190;16.366;2023-03-07T02:47:45;61.83;;;57.05;;
33644;SDS011;19986;48.190;16.366;2023-03-07T02:50:12;58.67;;;54.08;;
33644;SDS011;19986;48.190;16.366;2023-03-07T02:52:40;61.47;;;56.67;;
33644;SDS011;19986;48.190;16.366;2023-03-07T02:55:06;61.05;;;56.03;;
33644;SDS011;19986;48.190;16.366;2023-03-07T02:57:33;64.05;;;59.17;;
33644;SDS011;19986;48.190;16.366;2023-03-07T03:00:00;60.00;;;55.45;;
33644;SDS011;19986;48.190;16.366;2023-03-07T03:02:29;61.28;;;56.53;;
33644;SDS011;19986;48.190;16.366;2023-03-07T03:04:55;62.72;;;57.65;;
33644;SDS011;19986;48.190;16.366;2023-03-07T03:07:29;62.72;;;57.92;;
33644;SDS011;19986;48.190;16.366;2023-03-07T03:09:55;61.38;;;56.60;;
33644;SDS011;19986;48.190;16.366;2023-03-07T03:12:22;59.70;;;55.22;;
33644;SDS011;19986;48.190;16.366;2023-03-07T03:14:47;64.13;;;59.13;;
33644;SDS011;19986;48.190;16.366;2023-03-07T03:17:15;63.45;;;58.65;;
33644;SDS011;19986;48.190;16.366;2023-03-07T03:19:41;61.70;;;56.92;;
33644;SDS011;19986;48.190;16.366;2023-03-07T03:22:07;61.65;;;56.60;;
33644;SDS011;19986;48.190;16.366;2023-03-07T03:24:37;61.78;;;56.92;;
33644;SDS011;19986;48.190;16.366;2023-03-07T03:27:08;61.08;;;56.33;;
33644;SDS011;19986;48.190;16.366;2023-03-07T03:29:34;64.88;;;60.03;;
33644;SDS011;19986;48.190;16.366;2023-03-07T03:32:00;60.92;;;56.53;;
33644;SDS011;19986;48.190;16.366;2023-03-07T03:34:26;59.95;;;55.22;;
33644;SDS011;19986;48.190;16.366;2023-03-07T03:36:52;62.20;;;57.28;;
33644;SDS011;19986;48.190;16.366;2023-03-07T03:39:18;60.97;;;56.38;;
33644;SDS011;19986;48.190;16.366;2023-03-07T03:41:44;62.70;;;57.90;;
33644;SDS011;19986;48.190;16.366;2023-03-07T03:44:10;61.90;;;57.00;;
33644;SDS011;19986;48.190;16.366;2023-03-07T03:46:36;60.35;;;55.75;;
33644;SDS011;19986;48.190;16.366;2023-03-07T03:49:02;62.67;;;57.72;;
33644;SDS011;19986;48.190;16.366;2023-03-07T03:51:28;58.95;;;54.53;;
33644;SDS011;19986;48.190;16.366;2023-03-07T03:53:55;63.90;;;59.20;;
33644;SDS011;19986;48.190;16.366;2023-03-07T03:56:24;62.72;;;57.80;;
33644;SDS011;19986;48.190;16.366;2023-03-07T03:58:53;60.80;;;55.90;;
33644;SDS011;19986;48.190;16.366;2023-03-07T04:01:21;60.85;;;56.15;;
33644;SDS011;19986;48.190;16.366;2023-03-07T04:03:49;63.70;;;58.85;;
33644;SDS011;19986;48.190;16.366;2023-03-07T04:06:26;60.40;;;55.92;;
33644;SDS011;19986;48.190;16.366;2023-03-07T04:08:54;63.22;;;57.92;;
33644;SDS011;19986;48.190;16.366;2023-03-07T04:11:21;61.60;;;56.95;;
33644;SDS011;19986;48.190;16.366;2023-03-07T04:13:48;62.33;;;57.70;;
33644;SDS011;19986;48.190;16.366;2023-03-07T04:16:14;62.22;;;57.53;;
33644;SDS011;19986;48.190;16.366;2023-03-07T04:18:42;61.40;;;56.78;;
33644;SDS011;19986;48.190;16.366;2023-03-07T04:21:08;59.17;;;54.67;;
33644;SDS011;19986;48.190;16.366;2023-03-07T04:23:37;61.53;;;56.88;;
33644;SDS011;19986;48.190;16.366;2023-03-07T04:26:04;60.85;;;56.00;;
33644;SDS011;19986;48.190;16.366;2023-03-07T04:28:32;61.03;;;56.38;;
33644;SDS011;19986;48.190;16.366;2023-03-07T04:33:40;58.28;;;54.08;;
33644;SDS011;19986;48.190;16.366;2023-03-07T04:36:06;61.65;;;56.97;;
33644;SDS011;19986;48.190;16.366;2023-03-07T04:38:33;59.15;;;54.88;;
33644;SDS011;19986;48.190;16.366;2023-03-07T04:40:59;61.55;;;56.92;;
33644;SDS011;19986;48.190;16.366;2023-03-07T04:43:25;60.67;;;56.00;;
33644;SDS011;19986;48.190;16.366;2023-03-07T04:45:51;60.40;;;55.80;;
33644;SDS011;19986;48.190;16.366;2023-03-07T04:48:18;59.17;;;54.80;;
33644;SDS011;19986;48.190;16.366;2023-03-07T04:50:47;59.30;;;54.95;;
33644;SDS011;19986;48.190;16.366;2023-03-07T04:53:14;60.28;;;55.55;;
33644;SDS011;19986;48.190;16.366;2023-03-07T04:55:40;58.08;;;53.88;;
33644;SDS011;19986;48.190;16.366;2023-03-07T04:58:06;59.20;;;54.85;;
33644;SDS011;19986;48.190;16.366;2023-03-07T05:00:38;59.80;;;55.47;;
33644;SDS011;19986;48.190;16.366;2023-03-07T05:03:05;58.42;;;54.28;;
33644;SDS011;19986;48.190;16.366;2023-03-07T05:05:31;59.20;;;54.97;;
33644;SDS011;19986;48.190;16.366;2023-03-07T05:07:57;58.85;;;54.40;;
33644;SDS011;19986;48.190;16.366;2023-03-07T05:10:23;59.15;;;54.85;;
33644;SDS011;19986;48.190;16.366;2023-03-07T05:12:49;57.92;;;53.65;;
33644;SDS011;19986;48.190;16.366;2023-03-07T05:15:15;60.33;;;55.88;;
33644;SDS011;19986;48.190;16.366;2023-03-07T05:17:41;57.08;;;52.88;;
33644;SDS011;19986;48.190;16.366;2023-03-07T05:20:07;61.03;;;56.42;;
33644;SDS011;19986;48.190;16.366;2023-03-07T05:22:35;58.15;;;53.92;;
33644;SDS011;19986;48.190;16.366;2023-03-07T05:25:01;60.05;;;55.72;;
33644;SDS011;19986;48.190;16.366;2023-03-07T05:27:27;58.70;;;54.42;;
33644;SDS011;19986;48.190;16.366;2023-03-07T05:29:53;58.85;;;54.55;;
33644;SDS011;19986;48.190;16.366;2023-03-07T05:32:19;57.25;;;53.03;;
33644;SDS011;19986;48.190;16.366;2023-03-07T05:34:45;59.38;;;54.92;;
33644;SDS011;19986;48.190;16.366;2023-03-07T05:37:12;58.78;;;54.25;;
33644;SDS011;19986;48.190;16.366;2023-03-07T05:39:38;58.20;;;53.65;;
33644;SDS011;19986;48.190;16.366;2023-03-07T05:42:04;57.75;;;53.42;;
33644;SDS011;19986;48.190;16.366;2023-03-07T05:44:30;59.60;;;55.17;;
33644;SDS011;19986;48.190;16.366;2023-03-07T05:46:56;59.10;;;54.45;;
33644;SDS011;19986;48.190;16.366;2023-03-07T05:49:22;56.88;;;52.78;;
33644;SDS011;19986;48.190;16.366;2023-03-07T05:51:49;63.40;;;58.20;;
33644;SDS011;19986;48.190;16.366;2023-03-07T05:54:15;59.22;;;54.83;;
33644;SDS011;19986;48.190;16.366;2023-03-07T05:56:42;59.53;;;54.90;;
33644;SDS011;19986;48.190;16.366;2023-03-07T05:59:08;58.00;;;53.45;;
33644;SDS011;19986;48.190;16.366;2023-03-07T06:01:37;61.22;;;56.55;;
33644;SDS011;19986;48.190;16.366;2023-03-07T06:04:03;58.30;;;53.85;;
33644;SDS011;19986;48.190;16.366;2023-03-07T06:06:29;56.25;;;51.83;;
33644;SDS011;19986;48.190;16.366;2023-03-07T06:08:54;60.33;;;55.83;;
33644;SDS011;19986;48.190;16.366;2023-03-07T06:11:20;59.88;;;55.35;;
33644;SDS011;19986;48.190;16.366;2023-03-07T06:13:47;58.28;;;53.78;;
33644;SDS011;19986;48.190;16.366;2023-03-07T06:16:13;57.42;;;52.97;;
33644;SDS011;19986;48.190;16.366;2023-03-07T06:18:39;56.92;;;52.30;;
33644;SDS011;19986;48.190;16.366;2023-03-07T06:21:05;58.13;;;53.38;;
33644;SDS011;19986;48.190;16.366;2023-03-07T06:23:33;60.25;;;55.78;;
33644;SDS011;19986;48.190;16.366;2023-03-07T06:26:00;57.38;;;53.25;;
33644;SDS011;19986;48.190;16.366;2023-03-07T06:28:27;54.35;;;50.05;;
33644;SDS011;19986;48.190;16.366;2023-03-07T06:30:53;60.13;;;55.63;;
33644;SDS011;19986;48.190;16.366;2023-03-07T06:33:19;60.10;;;55.17;;
33644;SDS011;19986;48.190;16.366;2023-03-07T06:35:46;60.42;;;55.53;;
33644;SDS011;19986;48.190;16.366;2023-03-07T06:38:12;57.63;;;53.28;;
33644;SDS011;19986;48.190;16.366;2023-03-07T06:40:39;58.72;;;53.92;;
33644;SDS011;19986;48.190;16.366;2023-03-07T06:43:05;59.80;;;54.88;;
33644;SDS011;19986;48.190;16.366;2023-03-07T06:45:31;55.15;;;51.05;;
33644;SDS011;19986;48.190;16.366;2023-03-07T06:47:57;57.25;;;52.92;;
33644;SDS011;19986;48.190;16.366;2023-03-07T06:50:23;58.38;;;53.47;;
33644;SDS011;19986;48.190;16.366;2023-03-07T06:52:50;55.80;;;51.35;;
33644;SDS011;19986;48.190;16.366;2023-03-07T06:55:17;58.13;;;53.42;;
33644;SDS011;19986;48.190;16.366;2023-03-07T06:57:43;60.95;;;55.65;;
33644;SDS011;19986;48.190;16.366;2023-03-07T07:00:10;58.55;;;54.28;;
33644;SDS011;19986;48.190;16.366;2023-03-07T07:02:37;57.05;;;52.33;;
33644;SDS011;19986;48.190;16.366;2023-03-07T07:05:03;57.60;;;52.95;;
33644;SDS011;19986;48.190;16.366;2023-03-07T07:07:30;57.13;;;52.58;;
33644;SDS011;19986;48.190;16.366;2023-03-07T07:09:56;56.38;;;52.20;;
33644;SDS011;19986;48.190;16.366;2023-03-07T07:12:22;57.88;;;53.53;;
33644;SDS011;19986;48.190;16.366;2023-03-07T07:14:49;57.35;;;52.95;;
33644;SDS011;19986;48.190;16.366;2023-03-07T07:17:14;55.42;;;51.08;;
33644;SDS011;19986;48.190;16.366;2023-03-07T07:19:40;57.22;;;52.42;;
33644;SDS011;19986;48.190;16.366;2023-03-07T07:22:06;57.80;;;53.17;;
33644;SDS011;19986;48.190;16.366;2023-03-07T07:24:39;54.45;;;50.30;;
33644;SDS011;19986;48.190;16.366;2023-03-07T07:27:05;58.00;;;53.47;;
33644;SDS011;19986;48.190;16.366;2023-03-07T07:29:31;55.30;;;51.40;;
33644;SDS011;19986;48.190;16.366;2023-03-07T07:31:57;55.25;;;51.17;;
33644;SDS011;19986;48.190;16.366;2023-03-07T07:34:29;57.42;;;53.40;;
33644;SDS011;19986;48.190;16.366;2023-03-07T07:36:55;57.17;;;52.88;;
33644;SDS011;19986;48.190;16.366;2023-03-07T07:39:20;56.13;;;51.70;;
33644;SDS011;19986;48.190;16.366;2023-03-07T07:41:47;55.33;;;51.10;;
33644;SDS011;19986;48.190;16.366;2023-03-07T07:44:13;58.20;;;53.97;;
33644;SDS011;19986;48.190;16.366;2023-03-07T07:46:39;56.67;;;52.40;;
33644;SDS011;19986;48.190;16.366;2023-03-07T07:49:05;55.85;;;51.55;;
33644;SDS011;19986;48.190;16.366;2023-03-07T07:51:31;56.95;;;52.63;;
33644;SDS011;19986;48.190;16.366;2023-03-07T07:53:58;56.22;;;52.10;;
33644;SDS011;19986;48.190;16.366;2023-03-07T07:56:24;58.00;;;53.55;;
33644;SDS011;19986;48.190;16.366;2023-03-07T07:58:50;57.08;;;52.53;;
33644;SDS011;19986;48.190;16.366;2023-03-07T08:01:17;56.50;;;51.90;;
33644;SDS011;19986;48.190;16.366;2023-03-07T08:03:44;56.47;;;51.97;;
33644;SDS011;19986;48.190;16.366;2023-03-07T08:06:10;60.10;;;55.20;;
33644;SDS011;19986;48.190;16.366;2023-03-07T08:08:37;58.67;;;54.10;;
33644;SDS011;19986;48.190;16.366;2023-03-07T08:11:04;57.33;;;53.25;;
33644;SDS011;19986;48.190;16.366;2023-03-07T08:13:30;56.10;;;51.80;;
33644;SDS011;19986;48.190;16.366;2023-03-07T08:15:56;56.03;;;51.95;;
33644;SDS011;19986;48.190;16.366;2023-03-07T08:18:22;56.92;;;52.47;;
33644;SDS011;19986;48.190;16.366;2023-03-07T08:20:48;55.33;;;51.15;;
33644;SDS011;19986;48.190;16.366;2023-03-07T08:23:14;57.17;;;52.60;;
33644;SDS011;19986;48.190;16.366;2023-03-07T08:25:39;56.60;;;51.65;;
33644;SDS011;19986;48.190;16.366;2023-03-07T08:28:05;54.95;;;50.85;;
33644;SDS011;19986;48.190;16.366;2023-03-07T08:30:32;56.58;;;52.00;;
33644;SDS011;19986;48.190;16.366;2023-03-07T08:32:59;60.53;;;55.85;;
33644;SDS011;19986;48.190;16.366;2023-03-07T08:35:26;61.40;;;55.35;;
33644;SDS011;19986;48.190;16.366;2023-03-07T08:37:52;58.10;;;53.63;;
33644;SDS011;19986;48.190;16.366;2023-03-07T08:40:24;57.65;;;53.40;;
33644;SDS011;19986;48.190;16.366;2023-03-07T08:42:51;59.83;;;54.67;;
33644;SDS011;19986;48.190;16.366;2023-03-07T08:45:19;58.25;;;53.50;;
33644;SDS011;19986;48.190;16.366;2023-03-07T08:47:46;58.88;;;54.38;;
33644;SDS011;19986;48.190;16.366;2023-03-07T08:50:12;59.08;;;54.40;;
33644;SDS011;19986;48.190;16.366;2023-03-07T08:52:38;56.28;;;51.95;;
33644;SDS011;19986;48.190;16.366;2023-03-07T08:55:06;55.10;;;51.15;;
33644;SDS011;19986;48.190;16.366;2023-03-07T08:57:32;56.22;;;51.85;;
33644;SDS011;19986;48.190;16.366;2023-03-07T08:59:58;57.53;;;53.17;;
33644;SDS011;19986;48.190;16.366;2023-03-07T09:02:24;56.35;;;52.05;;
33644;SDS011;19986;48.190;16.366;2023-03-07T09:04:50;55.70;;;51.20;;
33644;SDS011;19986;48.190;16.366;2023-03-07T09:07:22;53.75;;;49.28;;
33644;SDS011;19986;48.190;16.366;2023-03-07T09:09:48;54.72;;;50.53;;
33644;SDS011;19986;48.190;16.366;2023-03-07T09:12:14;56.53;;;51.92;;
33644;SDS011;19986;48.190;16.366;2023-03-07T09:14:40;55.58;;;50.83;;
33644;SDS011;19986;48.190;16.366;2023-03-07T09:17:06;58.13;;;53.10;;
33644;SDS011;19986;48.190;16.366;2023-03-07T09:19:32;55.80;;;51.28;;
33644;SDS011;19986;48.190;16.366;2023-03-07T09:21:59;56.92;;;52.22;;
33644;SDS011;19986;48.190;16.366;2023-03-07T09:24:25;57.42;;;52.38;;
33644;SDS011;19986;48.190;16.366;2023-03-07T09:26:51;54.58;;;50.22;;
33644;SDS011;19986;48.190;16.366;2023-03-07T09:29:17;55.63;;;51.00;;
33644;SDS011;19986;48.190;16.366;2023-03-07T09:31:44;51.90;;;47.47;;
33644;SDS011;19986;48.190;16.366;2023-03-07T09:34:10;54.42;;;50.45;;
33644;SDS011;19986;48.190;16.366;2023-03-07T09:36:37;54.40;;;50.17;;
33644;SDS011;19986;48.190;16.366;2023-03-07T09:39:03;52.72;;;48.58;;
33644;SDS011;19986;48.190;16.366;2023-03-07T09:44:39;55.05;;;50.53;;
33644;SDS011;19986;48.190;16.366;2023-03-07T09:47:29;54.40;;;49.83;;
33644;SDS011;19986;48.190;16.366;2023-03-07T09:50:22;56.42;;;51.80;;
33644;SDS011;19986;48.190;16.366;2023-03-07T09:52:51;55.10;;;50.92;;
33644;SDS011;19986;48.190;16.366;2023-03-07T09:55:22;55.00;;;50.75;;
33644;SDS011;19986;48.190;16.366;2023-03-07T09:57:49;55.15;;;50.70;;
33644;SDS011;19986;48.190;16.366;2023-03-07T10:00:30;53.67;;;49.05;;
33644;SDS011;19986;48.190;16.366;2023-03-07T10:03:06;54.88;;;50.35;;
33644;SDS011;19986;48.190;16.366;2023-03-07T10:05:51;55.97;;;51.40;;
33644;SDS011;19986;48.190;16.366;2023-03-07T10:08:22;55.20;;;51.20;;
33644;SDS011;19986;48.190;16.366;2023-03-07T10:11:21;56.22;;;52.15;;
33644;SDS011;19986;48.190;16.366;2023-03-07T10:16:39;55.88;;;51.22;;
33644;SDS011;19986;48.190;16.366;2023-03-07T10:19:15;54.08;;;49.65;;
33644;SDS011;19986;48.190;16.366;2023-03-07T10:27:24;51.72;;;47.92;;
33644;SDS011;19986;48.190;16.366;2023-03-07T10:29:54;52.92;;;49.17;;
33644;SDS011;19986;48.190;16.366;2023-03-07T10:35:21;55.45;;;51.55;;
33644;SDS011;19986;48.190;16.366;2023-03-07T10:38:18;48.78;;;45.00;;
33644;SDS011;19986;48.190;16.366;2023-03-07T10:41:09;50.92;;;47.20;;
33644;SDS011;19986;48.190;16.366;2023-03-07T10:43:47;52.60;;;48.67;;
33644;SDS011;19986;48.190;16.366;2023-03-07T10:48:44;50.53;;;46.72;;
33644;SDS011;19986;48.190;16.366;2023-03-07T10:51:43;51.08;;;47.28;;
33644;SDS011;19986;48.190;16.366;2023-03-07T10:54:30;52.33;;;48.53;;
33644;SDS011;19986;48.190;16.366;2023-03-07T10:59:54;53.22;;;49.20;;
33644;SDS011;19986;48.190;16.366;2023-03-07T11:02:41;51.78;;;47.92;;
33644;SDS011;19986;48.190;16.366;2023-03-07T11:05:24;48.78;;;45.33;;
33644;SDS011;19986;48.190;16.366;2023-03-07T11:07:52;53.63;;;49.75;;
33644;SDS011;19986;48.190;16.366;2023-03-07T11:13:05;50.17;;;46.33;;
33644;SDS011;19986;48.190;16.366;2023-03-07T11:15:42;53.88;;;49.83;;
33644;SDS011;19986;48.190;16.366;2023-03-07T11:18:51;54.95;;;50.63;;
33644;SDS011;19986;48.190;16.366;2023-03-07T11:21:00;52.75;;;48.75;;
33644;SDS011;19986;48.190;16.366;2023-03-07T11:23:27;52.60;;;48.75;;
33644;SDS011;19986;48.190;16.366;2023-03-07T11:26:19;52.75;;;48.90;;
33644;SDS011;19986;48.190;16.366;2023-03-07T11:28:47;52.60;;;48.47;;
33644;SDS011;19986;48.190;16.366;2023-03-07T11:36:55;54.85;;;50.20;;
33644;SDS011;19986;48.190;16.366;2023-03-07T11:42:15;52.97;;;49.03;;
33644;SDS011;19986;48.190;16.366;2023-03-07T11:52:49;51.83;;;48.00;;
33644;SDS011;19986;48.190;16.366;2023-03-07T12:01:06;50.03;;;46.35;;
33644;SDS011;19986;48.190;16.366;2023-03-07T12:20:21;49.45;;;45.20;;
33644;SDS011;19986;48.190;16.366;2023-03-07T12:27:18;53.42;;;49.47;;
33644;SDS011;19986;48.190;16.366;2023-03-07T12:29:55;51.47;;;48.08;;
33644;SDS011;19986;48.190;16.366;2023-03-07T12:32:24;49.92;;;46.60;;
33644;SDS011;19986;48.190;16.366;2023-03-07T12:34:55;52.67;;;49.28;;
33644;SDS011;19986;48.190;16.366;2023-03-07T12:40:48;50.75;;;47.38;;
33644;SDS011;19986;48.190;16.366;2023-03-07T12:43:20;51.53;;;47.67;;
33644;SDS011;19986;48.190;16.366;2023-03-07T12:46:08;51.50;;;48.20;;
33644;SDS011;19986;48.190;16.366;2023-03-07T12:48:55;54.25;;;50.75;;
33644;SDS011;19986;48.190;16.366;2023-03-07T12:51:29;52.92;;;49.45;;
33644;SDS011;19986;48.190;16.366;2023-03-07T12:59:35;51.47;;;48.38;;
33644;SDS011;19986;48.190;16.366;2023-03-07T13:02:15;50.85;;;47.65;;
33644;SDS011;19986;48.190;16.366;2023-03-07T13:04:46;50.35;;;47.08;;
33644;SDS011;19986;48.190;16.366;2023-03-07T13:07:13;49.22;;;46.13;;
33644;SDS011;19986;48.190;16.366;2023-03-07T13:09:43;49.83;;;46.70;;
33644;SDS011;19986;48.190;16.366;2023-03-07T13:14:43;49.33;;;46.33;;
33644;SDS011;19986;48.190;16.366;2023-03-07T13:17:12;49.70;;;46.50;;
33644;SDS011;19986;48.190;16.366;2023-03-07T13:19:54;50.90;;;47.63;;
33644;SDS011;19986;48.190;16.366;2023-03-07T13:24:52;49.05;;;46.05;;
33644;SDS011;19986;48.190;16.366;2023-03-07T13:27:18;51.00;;;47.65;;
33644;SDS011;19986;48.190;16.366;2023-03-07T13:30:03;51.65;;;48.13;;
33644;SDS011;19986;48.190;16.366;2023-03-07T13:43:01;51.95;;;48.35;;
33644;SDS011;19986;48.190;16.366;2023-03-07T13:53:35;48.65;;;45.33;;
33644;SDS011;19986;48.190;16.366;2023-03-07T13:56:28;51.63;;;47.90;;
33644;SDS011;19986;48.190;16.366;2023-03-07T13:59:10;49.92;;;46.72;;
33644;SDS011;19986;48.190;16.366;2023-03-07T14:01:58;52.85;;;48.90;;
33644;SDS011;19986;48.190;16.366;2023-03-07T14:07:01;50.20;;;47.00;;
33644;SDS011;19986;48.190;16.366;2023-03-07T14:09:50;47.53;;;44.65;;
33644;SDS011;19986;48.190;16.366;2023-03-07T14:12:31;48.25;;;45.40;;
33644;SDS011;19986;48.190;16.366;2023-03-07T14:18:27;47.83;;;44.75;;
33644;SDS011;19986;48.190;16.366;2023-03-07T14:21:12;49.33;;;46.17;;
33644;SDS011;19986;48.190;16.366;2023-03-07T14:26:45;48.13;;;44.80;;
33644;SDS011;19986;48.190;16.366;2023-03-07T14:29:18;47.80;;;44.83;;
33644;SDS011;19986;48.190;16.366;2023-03-07T14:31:51;48.25;;;45.25;;
33644;SDS011;19986;48.190;16.366;2023-03-07T14:34:32;50.70;;;47.10;;
33644;SDS011;19986;48.190;16.366;2023-03-07T14:37:06;47.55;;;44.33;;
33644;SDS011;19986;48.190;16.366;2023-03-07T14:49:03;51.60;;;48.13;;
33644;SDS011;19986;48.190;16.366;2023-03-07T14:51:35;48.67;;;45.65;;
33644;SDS011;19986;48.190;16.366;2023-03-07T14:54:07;47.90;;;44.47;;
33644;SDS011;19986;48.190;16.366;2023-03-07T14:56:43;51.28;;;47.28;;
33644;SDS011;19986;48.190;16.366;2023-03-07T14:59:11;48.38;;;45.53;;
33644;SDS011;19986;48.190;16.366;2023-03-07T15:01:38;49.63;;;46.55;;
33644;SDS011;19986;48.190;16.366;2023-03-07T15:06:54;48.33;;;45.53;;
33644;SDS011;19986;48.190;16.366;2023-03-07T15:09:22;49.95;;;46.65;;
33644;SDS011;19986;48.190;16.366;2023-03-07T15:14:19;52.13;;;48.90;;
33644;SDS011;19986;48.190;16.366;2023-03-07T15:17:05;49.92;;;46.50;;
33644;SDS011;19986;48.190;16.366;2023-03-07T15:22:32;47.75;;;44.95;;
33644;SDS011;19986;48.190;16.366;2023-03-07T15:25:06;50.22;;;47.42;;
33644;SDS011;19986;48.190;16.366;2023-03-07T15:27:46;51.35;;;47.95;;
33644;SDS011;19986;48.190;16.366;2023-03-07T15:30:34;49.55;;;46.20;;
33644;SDS011;19986;48.190;16.366;2023-03-07T15:33:02;50.17;;;46.85;;
33644;SDS011;19986;48.190;16.366;2023-03-07T15:35:40;49.10;;;46.15;;
33644;SDS011;19986;48.190;16.366;2023-03-07T15:38:15;50.45;;;46.90;;
33644;SDS011;19986;48.190;16.366;2023-03-07T15:40:46;51.67;;;48.38;;
33644;SDS011;19986;48.190;16.366;2023-03-07T15:48:26;50.38;;;47.28;;
33644;SDS011;19986;48.190;16.366;2023-03-07T15:51:01;52.67;;;49.38;;
33644;SDS011;19986;48.190;16.366;2023-03-07T15:53:31;52.20;;;49.10;;
33644;SDS011;19986;48.190;16.366;2023-03-07T15:56:02;52.63;;;49.38;;
33644;SDS011;19986;48.190;16.366;2023-03-07T15:58:30;52.63;;;49.20;;
33644;SDS011;19986;48.190;16.366;2023-03-07T16:06:38;54.80;;;50.97;;
33644;SDS011;19986;48.190;16.366;2023-03-07T16:09:10;54.10;;;50.70;;
33644;SDS011;19986;48.190;16.366;2023-03-07T16:11:40;52.50;;;49.30;;
33644;SDS011;19986;48.190;16.366;2023-03-07T16:14:40;54.38;;;50.83;;
33644;SDS011;19986;48.190;16.366;2023-03-07T16:16:59;53.38;;;49.88;;
33644;SDS011;19986;48.190;16.366;2023-03-07T16:19:28;56.47;;;52.65;;
33644;SDS011;19986;48.190;16.366;2023-03-07T16:21:54;54.45;;;50.50;;
33644;SDS011;19986;48.190;16.366;2023-03-07T16:24:20;58.33;;;54.22;;
33644;SDS011;19986;48.190;16.366;2023-03-07T16:26:46;54.92;;;51.00;;
33644;SDS011;19986;48.190;16.366;2023-03-07T16:29:13;56.92;;;53.20;;
33644;SDS011;19986;48.190;16.366;2023-03-07T16:31:41;57.60;;;53.63;;
33644;SDS011;19986;48.190;16.366;2023-03-07T16:34:14;55.35;;;51.67;;
33644;SDS011;19986;48.190;16.366;2023-03-07T16:36:42;58.40;;;54.33;;
33644;SDS011;19986;48.190;16.366;2023-03-07T16:39:09;56.97;;;52.83;;
33644;SDS011;19986;48.190;16.366;2023-03-07T16:41:37;58.78;;;54.67;;
33644;SDS011;19986;48.190;16.366;2023-03-07T16:44:10;58.97;;;54.97;;
33644;SDS011;19986;48.190;16.366;2023-03-07T16:46:43;56.70;;;52.50;;